Alford, Massachusetts
Current Conditions -  °F | °C
As of 3:54 PM on Friday 31 Oct 2014 (Local Time) from KPSF Reporting Station
Broken Clouds Broken Clouds  
Wind Chill: 46°   Ceiling: 4300
Heat Index: 48°   Visibility: 10mi
Dew Point: 36°   Wind: 5mph
Humidity: 63%   Direction: 50°NE
Pressure: 29.93"   Gusts: NA
Location:  42.1779°N, 73.3332°W
Report Text: KPSF 311954Z AUTO 05004KT 10SM BKN043 09/02 A2993 RMK AO2 SLP137 T00890022
Loading
Personal Weather Stations






























Interactive Weather Map
Tropical Storm Tracking
New forecast layout! Learn more

10-Day Weather Forecast

Advertisements
Track Severe Weather on mobile